Smithfield - 24 Hour Table
Date & TimeSolar
Radiation
(W/m²)
Wind
Speed
(mph)
Wind
Direction
(degrees)
Air
Temperature
(°F)
Relative
Humidity
(%)
Precipitation
(inches)
Max
Wind
Speed
(mph)
2021/09/24 07:00 10 3.3 53 44.4 77 0.00 4.9
2021/09/24 06:00 0 3.0 65 46.3 73 0.00 4.2
2021/09/24 05:00 0 2.5 92 47.5 67 0.00 4.6
2021/09/24 04:00 0 3.1 72 48.4 63 0.00 4.9
2021/09/24 03:00 0 3.5 54 50.3 59 0.00 6.0
2021/09/24 02:00 0 4.7 45 51.5 62 0.00 6.0
2021/09/24 01:00 0 4.1 54 52.3 60 0.00 5.6
2021/09/24 00:00 0 4.4 58 53.7 54 0.00 5.6
2021/09/23 23:00 0 3.8 58 55.2 52 0.00 5.6
2021/09/23 22:00 0 3.4 111 58.8 47 0.00 9.2
2021/09/23 21:00 0 3.4 52 60.0 40 0.00 7.8
2021/09/23 20:00 0 4.0 30 62.6 43 0.00 11.7
2021/09/23 19:00 7 5.6 24 65.9 34 0.00 12.8
2021/09/23 18:00 77 5.5 2 70.2 31 0.00 13.9
2021/09/23 17:00 312 3.8 0 73.7 27 0.00 8.8
2021/09/23 16:00 422 4.3 321 74.6 22 0.00 11.7
2021/09/23 15:00 589 4.1 263 74.6 21 0.00 8.8
2021/09/23 14:00 723 3.8 316 73.3 25 0.00 9.2
2021/09/23 13:00 744 5.0 313 70.5 31 0.00 9.2
2021/09/23 12:00 737 5.0 337 66.1 29 0.00 9.6
2021/09/23 11:00 663 3.6 353 61.7 30 0.00 7.4
2021/09/23 10:00 225 4.5 63 52.2 55 0.00 13.1
2021/09/23 09:00 54 5.7 61 50.8 50 0.00 14.2
2021/09/23 08:00 108 3.9 93 53.4 37 0.00 9.6